Time;durP1;ratioP1;P1;durP2;ratioP2;P2;SDS_P1;SDS_P2;PMS_P1;PMS_P2;Temp;Humidity;BMP_temperature;BMP_pressure;BME280_temperature;BME280_humidity;BME280_pressure;Samples;Min_cycle;Max_cycle;Signal;HPM_P1;HPM_P2
2022/01/27 09:30:12;;;;;;;67.20;20.07;;;;;;;;;;5084905;28;20402;-72
2022/01/27 09:32:38;;;;;;;43.83;16.47;;;;;;;;;;5085141;28;20109;-73
2022/01/27 09:35:04;;;;;;;41.43;15.93;;;;;;;;;;5083623;28;20048;-72
2022/01/27 09:37:30;;;;;;;48.27;15.50;;;;;;;;;;5080492;28;20381;-72
2022/01/27 09:39:56;;;;;;;42.20;15.63;;;;;;;;;;5074458;28;20131;-72
2022/01/27 09:42:25;;;;;;;39.83;15.20;;;;;;;;;;5070789;28;20369;-72
2022/01/27 09:44:53;;;;;;;42.23;15.47;;;;;;;;;;5064755;28;20053;-72
2022/01/27 09:47:20;;;;;;;38.83;14.17;;;;;;;;;;5066957;28;20118;-72
2022/01/27 09:49:53;;;;;;;48.00;16.60;;;;;;;;;;5064940;28;20040;-72
2022/01/27 09:52:20;;;;;;;35.80;13.52;;;;;;;;;;5065159;28;20047;-72
2022/01/27 09:54:46;;;;;;;45.50;14.33;;;;;;;;;;5064898;28;20040;-72
2022/01/27 09:57:16;;;;;;;36.57;13.40;;;;;;;;;;5067743;28;20106;-71
2022/01/27 09:59:43;;;;;;;35.20;13.77;;;;;;;;;;5067684;28;20040;-71
2022/01/27 10:02:10;;;;;;;43.30;14.87;;;;;;;;;;5072386;28;20044;-71
2022/01/27 10:04:51;;;;;;;36.63;15.13;;;;;;;;;;5079709;28;20056;-71
2022/01/27 10:07:19;;;;;;;40.33;12.37;;;;;;;;;;5083626;28;20051;-71
2022/01/27 10:10:03;;;;;;;31.47;11.93;;;;;;;;;;5083608;28;20044;-71
2022/01/27 10:12:32;;;;;;;36.17;11.50;;;;;;;;;;5075223;28;20108;-71
2022/01/27 10:15:00;;;;;;;32.87;11.80;;;;;;;;;;5085008;28;20048;-71
2022/01/27 10:17:29;;;;;;;44.17;13.37;;;;;;;;;;5082489;28;20060;-71
2022/01/27 10:19:57;;;;;;;47.40;13.80;;;;;;;;;;5073786;28;20044;-71
2022/01/27 10:22:23;;;;;;;42.60;13.87;;;;;;;;;;5073309;28;20036;-71
2022/01/27 10:24:59;;;;;;;46.43;14.20;;;;;;;;;;5084704;28;20081;-71
2022/01/27 10:27:34;;;;;;;38.63;13.70;;;;;;;;;;5084723;28;20041;-71
2022/01/27 10:30:36;;;;;;;50.13;13.97;;;;;;;;;;5083635;28;20436;-71
2022/01/27 10:33:02;;;;;;;43.17;13.50;;;;;;;;;;5084468;28;20040;-71
2022/01/27 10:35:28;;;;;;;44.70;14.70;;;;;;;;;;5080330;28;20052;-71
2022/01/27 10:37:56;;;;;;;40.23;13.47;;;;;;;;;;5081970;28;20048;-71
2022/01/27 10:40:39;;;;;;;39.77;13.10;;;;;;;;;;5077313;28;20170;-71
2022/01/27 10:43:07;;;;;;;44.63;13.97;;;;;;;;;;5070880;28;20119;-71
2022/01/27 10:45:33;;;;;;;39.83;12.13;;;;;;;;;;5068883;28;20048;-71
2022/01/27 10:48:29;;;;;;;35.73;12.50;;;;;;;;;;5069696;28;20041;-72
2022/01/27 10:51:15;;;;;;;53.50;14.63;;;;;;;;;;5069194;28;20056;-71
2022/01/27 10:53:43;;;;;;;38.67;12.10;;;;;;;;;;5068362;28;20056;-71
2022/01/27 10:56:09;;;;;;;44.97;13.87;;;;;;;;;;5069795;28;20091;-71
2022/01/27 10:58:37;;;;;;;40.03;12.03;;;;;;;;;;5069466;28;20045;-71
2022/01/27 11:01:04;;;;;;;35.97;13.50;;;;;;;;;;5069441;28;20245;-71
2022/01/27 11:03:30;;;;;;;32.70;11.43;;;;;;;;;;5056587;28;20057;-71
2022/01/27 11:06:05;;;;;;;37.00;11.83;;;;;;;;;;5060072;28;20106;-71
2022/01/27 11:08:32;;;;;;;29.83;11.37;;;;;;;;;;5052880;28;20049;-71
2022/01/27 11:10:58;;;;;;;31.90;11.43;;;;;;;;;;5035651;28;20045;-72
2022/01/27 11:13:26;;;;;;;36.90;12.23;;;;;;;;;;5064357;28;20048;-71
2022/01/27 11:15:54;;;;;;;43.23;12.50;;;;;;;;;;5053164;28;20044;-72
2022/01/27 11:18:22;;;;;;;33.87;11.13;;;;;;;;;;5061595;28;20510;-72
2022/01/27 11:20:57;;;;;;;34.47;11.90;;;;;;;;;;5056729;28;20090;-72
2022/01/27 11:26:07;;;;;;;37.53;11.63;;;;;;;;;;5061437;28;20045;-72
2022/01/27 11:28:34;;;;;;;24.00;9.37;;;;;;;;;;5056044;28;20056;-72
2022/01/27 11:31:01;;;;;;;31.13;11.33;;;;;;;;;;5068990;28;20063;-72
2022/01/27 11:33:32;;;;;;;39.87;9.50;;;;;;;;;;5069419;28;20052;-72
2022/01/27 11:36:08;;;;;;;31.53;9.87;;;;;;;;;;5068966;28;20083;-72
2022/01/27 11:38:34;;;;;;;29.00;9.03;;;;;;;;;;5065415;28;20131;-72
2022/01/27 11:41:00;;;;;;;31.70;10.60;;;;;;;;;;5062228;28;20191;-72
2022/01/27 11:43:33;;;;;;;30.33;10.40;;;;;;;;;;5058495;28;20149;-72
2022/01/27 11:46:13;;;;;;;22.58;8.85;;;;;;;;;;5056176;28;20044;-71
2022/01/27 11:48:39;;;;;;;28.50;8.30;;;;;;;;;;5052456;28;20521;-71
2022/01/27 11:51:13;;;;;;;20.27;6.13;;;;;;;;;;5053896;28;20072;-71
2022/01/27 11:53:43;;;;;;;21.40;6.30;;;;;;;;;;5051922;28;20052;-71
2022/01/27 11:56:28;;;;;;;17.57;6.07;;;;;;;;;;5066974;28;20048;-72
2022/01/27 11:58:55;;;;;;;21.63;5.80;;;;;;;;;;5049655;28;20094;-72
2022/01/27 12:01:25;;;;;;;22.17;6.13;;;;;;;;;;5055364;28;20517;-71
2022/01/27 12:04:11;;;;;;;22.70;5.67;;;;;;;;;;5055370;28;20049;-71
2022/01/27 12:06:38;;;;;;;20.80;5.50;;;;;;;;;;5060490;28;20049;-71
2022/01/27 12:09:19;;;;;;;28.47;5.77;;;;;;;;;;5069116;28;20760;-71
2022/01/27 12:11:50;;;;;;;19.47;4.73;;;;;;;;;;5069320;28;20057;-71
2022/01/27 12:14:22;;;;;;;32.23;6.70;;;;;;;;;;5057202;28;20083;-71
2022/01/27 12:17:07;;;;;;;26.70;5.77;;;;;;;;;;5066135;28;20045;-71
2022/01/27 12:19:47;;;;;;;24.60;5.43;;;;;;;;;;5065340;28;20051;-71
2022/01/27 12:22:15;;;;;;;21.63;5.73;;;;;;;;;;5061614;28;20511;-71
2022/01/27 12:24:50;;;;;;;31.77;5.90;;;;;;;;;;5050653;28;20052;-71
2022/01/27 12:27:19;;;;;;;22.37;5.43;;;;;;;;;;5049553;28;20573;-71
2022/01/27 12:29:53;;;;;;;20.27;4.23;;;;;;;;;;5064239;28;20053;-71
2022/01/27 12:32:23;;;;;;;31.13;6.23;;;;;;;;;;5061717;28;20052;-71
2022/01/27 12:34:57;;;;;;;25.90;5.07;;;;;;;;;;5067270;28;20418;-71
2022/01/27 12:37:32;;;;;;;25.83;4.77;;;;;;;;;;5053453;28;20051;-71
2022/01/27 12:39:59;;;;;;;20.07;4.53;;;;;;;;;;5066503;28;20052;-71
2022/01/27 12:42:31;;;;;;;25.13;5.07;;;;;;;;;;5068319;28;20055;-71
2022/01/27 12:45:02;;;;;;;21.53;4.97;;;;;;;;;;5067997;28;20059;-71
2022/01/27 12:47:30;;;;;;;19.40;5.50;;;;;;;;;;5067665;28;20055;-71
2022/01/27 12:50:09;;;;;;;16.87;5.10;;;;;;;;;;5067828;28;20052;-71
2022/01/27 12:52:40;;;;;;;18.37;5.53;;;;;;;;;;5058544;28;20080;-71
2022/01/27 12:55:06;;;;;;;22.83;5.03;;;;;;;;;;5057182;28;20676;-71
2022/01/27 12:57:33;;;;;;;27.87;6.53;;;;;;;;;;5065371;28;20044;-71
2022/01/27 13:00:00;;;;;;;24.20;4.60;;;;;;;;;;5067639;28;20517;-71
2022/01/27 13:02:26;;;;;;;24.33;6.00;;;;;;;;;;5066475;28;20040;-71
2022/01/27 13:04:57;;;;;;;18.13;4.33;;;;;;;;;;5066893;28;20056;-71
2022/01/27 13:07:26;;;;;;;20.00;4.05;;;;;;;;;;5067859;28;20480;-71
2022/01/27 13:09:53;;;;;;;21.37;3.90;;;;;;;;;;5058476;28;20056;-71
2022/01/27 13:12:24;;;;;;;25.17;5.00;;;;;;;;;;5058844;28;20405;-71
2022/01/27 13:15:06;;;;;;;26.77;4.43;;;;;;;;;;5066422;28;20037;-71
2022/01/27 13:17:38;;;;;;;23.20;5.37;;;;;;;;;;5051176;28;20056;-71
2022/01/27 13:20:12;;;;;;;23.37;4.30;;;;;;;;;;5060326;28;20052;-71
2022/01/27 13:22:45;;;;;;;23.00;4.73;;;;;;;;;;5066811;28;20053;-71
2022/01/27 13:25:11;;;;;;;23.05;5.65;;;;;;;;;;5066613;28;20536;-71
2022/01/27 13:27:37;;;;;;;23.20;5.43;;;;;;;;;;5058614;28;20041;-71
2022/01/27 13:30:03;;;;;;;22.63;4.77;;;;;;;;;;5067264;28;20061;-71
2022/01/27 13:32:29;;;;;;;21.77;4.90;;;;;;;;;;5065138;28;20132;-71
2022/01/27 13:34:55;;;;;;;28.63;4.70;;;;;;;;;;5066105;28;20056;-71
2022/01/27 13:37:32;;;;;;;22.73;3.93;;;;;;;;;;5066256;28;20044;-71
2022/01/27 13:42:24;;;;;;;18.43;3.97;;;;;;;;;;5050850;28;20044;-71
2022/01/27 13:44:53;;;;;;;27.03;4.70;;;;;;;;;;5051712;28;20091;-71
2022/01/27 13:47:25;;;;;;;19.90;4.83;;;;;;;;;;5065747;28;20510;-71
2022/01/27 13:49:51;;;;;;;27.80;4.43;;;;;;;;;;5066203;28;20049;-71
2022/01/27 13:52:18;;;;;;;22.23;4.63;;;;;;;;;;5067467;28;20493;-71
2022/01/27 13:54:45;;;;;;;31.73;5.27;;;;;;;;;;5064887;28;20836;-71
2022/01/27 13:57:12;;;;;;;24.40;4.90;;;;;;;;;;5068610;28;20075;-71
2022/01/27 13:59:51;;;;;;;23.73;4.90;;;;;;;;;;5066267;28;20417;-71
2022/01/27 14:02:17;;;;;;;18.07;3.90;;;;;;;;;;5060986;28;20514;-71
2022/01/27 14:04:56;;;;;;;28.63;5.77;;;;;;;;;;5064528;28;20579;-71
2022/01/27 14:07:33;;;;;;;23.83;4.53;;;;;;;;;;5050085;28;20049;-71
2022/01/27 14:10:09;;;;;;;25.83;5.13;;;;;;;;;;5067871;28;20532;-71
2022/01/27 14:13:04;;;;;;;24.70;4.00;;;;;;;;;;5058591;28;20056;-71
2022/01/27 14:15:39;;;;;;;15.80;4.20;;;;;;;;;;5066960;28;20464;-71
2022/01/27 14:18:08;;;;;;;21.80;4.00;;;;;;;;;;5058817;28;20060;-71
2022/01/27 14:20:36;;;;;;;17.93;3.53;;;;;;;;;;5065491;28;20501;-71
2022/01/27 14:23:15;;;;;;;22.07;4.07;;;;;;;;;;5071527;28;20048;-71
2022/01/27 14:25:53;;;;;;;29.13;5.07;;;;;;;;;;5060408;28;20051;-71
2022/01/27 14:28:20;;;;;;;26.57;4.17;;;;;;;;;;5056574;28;20065;-71
2022/01/27 14:30:46;;;;;;;22.07;4.67;;;;;;;;;;5061633;28;20051;-71
2022/01/27 14:33:15;;;;;;;30.00;5.27;;;;;;;;;;5065498;28;20044;-71
2022/01/27 14:35:42;;;;;;;27.77;5.00;;;;;;;;;;5062661;28;20121;-71
2022/01/27 14:38:09;;;;;;;24.17;3.73;;;;;;;;;;5069774;28;20422;-71
2022/01/27 14:40:35;;;;;;;23.73;4.47;;;;;;;;;;5068897;28;20048;-71
2022/01/27 14:43:02;;;;;;;24.77;3.80;;;;;;;;;;5070563;28;20510;-71
2022/01/27 14:45:29;;;;;;;27.10;5.23;;;;;;;;;;5066908;28;20080;-71
2022/01/27 14:48:02;;;;;;;26.50;4.53;;;;;;;;;;5056763;28;20055;-71
2022/01/27 14:50:29;;;;;;;22.00;3.95;;;;;;;;;;5070671;28;20089;-70
2022/01/27 14:52:56;;;;;;;21.93;3.93;;;;;;;;;;5052691;28;20045;-70
2022/01/27 14:55:23;;;;;;;25.80;3.60;;;;;;;;;;5066264;28;20048;-71
2022/01/27 14:57:51;;;;;;;20.20;5.13;;;;;;;;;;5064207;28;20044;-70
2022/01/27 15:00:18;;;;;;;26.17;3.63;;;;;;;;;;5064349;28;20048;-70
2022/01/27 15:02:44;;;;;;;27.70;5.03;;;;;;;;;;5063256;28;20047;-70
2022/01/27 15:05:11;;;;;;;26.80;4.43;;;;;;;;;;5069582;28;20044;-70
2022/01/27 15:07:37;;;;;;;27.13;4.50;;;;;;;;;;5070793;28;20040;-70
2022/01/27 15:10:06;;;;;;;27.93;5.13;;;;;;;;;;5060001;28;20044;-70
2022/01/27 15:12:32;;;;;;;20.67;3.67;;;;;;;;;;5060536;28;20041;-70
2022/01/27 15:20:29;;;;;;;19.53;3.30;;;;;;;;;;5060990;28;20152;-70
2022/01/27 15:22:55;;;;;;;26.27;4.17;;;;;;;;;;5059874;28;20053;-70
2022/01/27 15:25:24;;;;;;;35.53;6.13;;;;;;;;;;5055954;28;20167;-70
2022/01/27 15:27:51;;;;;;;15.60;3.97;;;;;;;;;;5057570;28;20418;-70
2022/01/27 15:30:18;;;;;;;29.47;4.00;;;;;;;;;;5064323;28;20095;-70
2022/01/27 15:32:44;;;;;;;30.20;4.00;;;;;;;;;;5070020;28;20102;-70
2022/01/27 15:35:13;;;;;;;29.40;4.20;;;;;;;;;;5068303;28;20529;-70
2022/01/27 15:37:43;;;;;;;25.90;4.57;;;;;;;;;;5069572;28;20551;-70
2022/01/27 15:40:15;;;;;;;25.47;5.03;;;;;;;;;;5060502;28;20158;-71
2022/01/27 15:42:45;;;;;;;23.17;5.40;;;;;;;;;;5063789;28;20044;-70
2022/01/27 15:45:12;;;;;;;31.37;4.13;;;;;;;;;;5069601;28;20102;-71
2022/01/27 15:47:38;;;;;;;30.00;3.90;;;;;;;;;;5060271;28;20041;-71
2022/01/27 15:50:05;;;;;;;35.03;4.53;;;;;;;;;;5061954;28;20044;-71
2022/01/27 15:52:34;;;;;;;30.53;4.17;;;;;;;;;;5068327;28;20097;-70
2022/01/27 15:55:01;;;;;;;25.60;5.07;;;;;;;;;;5063834;28;20597;-70
2022/01/27 15:57:31;;;;;;;25.73;4.33;;;;;;;;;;5058376;28;20040;-70
2022/01/27 15:59:57;;;;;;;22.30;3.77;;;;;;;;;;5056972;28;20045;-71
2022/01/27 16:02:23;;;;;;;32.30;4.77;;;;;;;;;;5060716;28;20044;-70
2022/01/27 16:04:49;;;;;;;29.70;4.80;;;;;;;;;;5050712;28;20417;-70
2022/01/27 16:07:16;;;;;;;30.23;6.63;;;;;;;;;;5068311;28;20048;-70
2022/01/27 16:09:42;;;;;;;29.63;4.10;;;;;;;;;;5060540;28;20102;-70
2022/01/27 16:12:08;;;;;;;36.80;5.53;;;;;;;;;;5061296;28;20079;-70
2022/01/27 16:14:37;;;;;;;25.83;4.67;;;;;;;;;;5057697;28;20063;-70
2022/01/27 16:17:04;;;;;;;30.13;5.37;;;;;;;;;;5067927;28;20414;-70
2022/01/27 16:19:30;;;;;;;30.37;4.87;;;;;;;;;;5069357;28;20533;-70
2022/01/27 16:21:56;;;;;;;29.70;4.70;;;;;;;;;;5067560;28;20048;-70
2022/01/27 16:24:26;;;;;;;28.77;4.53;;;;;;;;;;5066609;28;20056;-70
2022/01/27 16:26:52;;;;;;;26.50;4.53;;;;;;;;;;5066863;28;20043;-70
2022/01/27 16:29:18;;;;;;;31.00;4.53;;;;;;;;;;5067410;28;20068;-70
2022/01/27 16:31:44;;;;;;;31.43;3.90;;;;;;;;;;5067245;28;20041;-70
2022/01/27 16:34:10;;;;;;;29.03;5.03;;;;;;;;;;5068811;28;20044;-70
2022/01/27 16:36:36;;;;;;;26.20;4.63;;;;;;;;;;5066687;28;20039;-70
2022/01/27 16:39:03;;;;;;;27.13;4.30;;;;;;;;;;5066208;28;20040;-70
2022/01/27 16:41:30;;;;;;;25.17;3.70;;;;;;;;;;5066020;28;20059;-70
2022/01/27 16:43:56;;;;;;;28.77;5.13;;;;;;;;;;5068923;28;20135;-70
2022/01/27 16:46:22;;;;;;;29.73;4.33;;;;;;;;;;5053304;28;20056;-70
2022/01/27 16:48:48;;;;;;;28.57;4.13;;;;;;;;;;5048858;28;20048;-70
2022/01/27 16:51:14;;;;;;;28.87;4.10;;;;;;;;;;5052844;28;20766;-70
2022/01/27 16:53:40;;;;;;;22.50;5.07;;;;;;;;;;5068612;28;20044;-70
2022/01/27 16:56:09;;;;;;;20.90;4.40;;;;;;;;;;5063691;28;20048;-70
2022/01/27 16:58:35;;;;;;;24.13;5.47;;;;;;;;;;5048912;28;20049;-70
2022/01/27 17:01:01;;;;;;;27.83;5.93;;;;;;;;;;5051791;28;20044;-71
2022/01/27 17:03:27;;;;;;;31.53;5.27;;;;;;;;;;5068530;28;20048;-70
2022/01/27 17:05:53;;;;;;;34.43;4.27;;;;;;;;;;5067952;28;20045;-70
2022/01/27 17:08:21;;;;;;;25.73;4.23;;;;;;;;;;5068504;28;20063;-71
2022/01/27 17:10:50;;;;;;;29.93;5.00;;;;;;;;;;5065794;28;20090;-70
2022/01/27 17:13:16;;;;;;;31.20;5.23;;;;;;;;;;5047507;28;20142;-70
2022/01/27 17:15:43;;;;;;;30.20;4.60;;;;;;;;;;5047549;28;20601;-70
2022/01/27 17:18:10;;;;;;;27.00;5.10;;;;;;;;;;5048992;28;20047;-70
2022/01/27 17:20:39;;;;;;;35.27;4.57;;;;;;;;;;5061925;28;20418;-70
2022/01/27 17:23:06;;;;;;;36.53;5.13;;;;;;;;;;5048662;28;20048;-70
2022/01/27 17:25:32;;;;;;;27.03;5.43;;;;;;;;;;5058259;28;20456;-70
2022/01/27 17:27:58;;;;;;;32.00;4.77;;;;;;;;;;5067433;28;20103;-70
2022/01/27 17:30:27;;;;;;;35.53;6.47;;;;;;;;;;5048880;28;20079;-70
2022/01/27 17:32:54;;;;;;;33.00;4.47;;;;;;;;;;5049098;28;20056;-70
2022/01/27 17:35:21;;;;;;;33.13;5.07;;;;;;;;;;5066599;28;20053;-70
2022/01/27 17:37:47;;;;;;;38.47;6.43;;;;;;;;;;5051181;28;20496;-70
2022/01/27 17:40:18;;;;;;;29.80;5.47;;;;;;;;;;5068075;28;20413;-71
2022/01/27 17:42:53;;;;;;;38.77;4.07;;;;;;;;;;5067453;28;20575;-70
2022/01/27 17:45:19;;;;;;;24.97;5.33;;;;;;;;;;5066958;28;20080;-71
2022/01/27 17:47:52;;;;;;;28.07;4.83;;;;;;;;;;5060997;28;20040;-70
2022/01/27 17:50:18;;;;;;;40.37;6.83;;;;;;;;;;5053124;28;20768;-70
2022/01/27 17:52:44;;;;;;;35.47;5.77;;;;;;;;;;5057339;28;20033;-70
2022/01/27 17:55:14;;;;;;;45.03;6.03;;;;;;;;;;5070997;28;20048;-70
2022/01/27 17:57:40;;;;;;;34.60;5.67;;;;;;;;;;5071193;28;20043;-70
2022/01/27 18:00:10;;;;;;;31.97;4.90;;;;;;;;;;5070844;28;20059;-70
2022/01/27 18:02:36;;;;;;;28.83;5.10;;;;;;;;;;5071240;28;20489;-71
2022/01/27 18:05:02;;;;;;;33.00;6.03;;;;;;;;;;5067957;28;20045;-71
2022/01/27 18:07:28;;;;;;;38.07;5.17;;;;;;;;;;5072306;28;20463;-71
2022/01/27 18:09:55;;;;;;;43.10;5.83;;;;;;;;;;5071085;28;20237;-71
2022/01/27 18:12:25;;;;;;;43.37;6.07;;;;;;;;;;5071897;28;20052;-71
2022/01/27 18:14:51;;;;;;;29.00;6.20;;;;;;;;;;5070023;28;20826;-71
2022/01/27 18:17:17;;;;;;;41.00;6.27;;;;;;;;;;5071545;28;20502;-71
2022/01/27 18:19:45;;;;;;;25.80;5.43;;;;;;;;;;5056794;28;20679;-71
2022/01/27 18:22:17;;;;;;;39.53;5.57;;;;;;;;;;5070597;28;20057;-71
2022/01/27 18:24:44;;;;;;;31.00;4.40;;;;;;;;;;5068821;28;20044;-71
2022/01/27 18:27:13;;;;;;;30.17;6.43;;;;;;;;;;5065199;28;20106;-72
2022/01/27 18:29:39;;;;;;;32.90;4.60;;;;;;;;;;5070247;28;20102;-71
2022/01/27 18:32:06;;;;;;;27.07;4.97;;;;;;;;;;5067561;28;20049;-71
2022/01/27 18:34:35;;;;;;;33.73;6.10;;;;;;;;;;5070332;28;20048;-71
2022/01/27 18:37:00;;;;;;;42.30;6.23;;;;;;;;;;5071175;28;20086;-71
2022/01/27 18:39:26;;;;;;;29.63;5.87;;;;;;;;;;5070651;28;20048;-71
2022/01/27 18:41:52;;;;;;;36.87;5.57;;;;;;;;;;5071366;28;20044;-71
2022/01/27 18:44:18;;;;;;;30.47;3.87;;;;;;;;;;5062700;28;20040;-71
2022/01/27 18:46:45;;;;;;;37.70;4.97;;;;;;;;;;5071122;28;20044;-71
2022/01/27 18:49:11;;;;;;;29.10;4.20;;;;;;;;;;5069731;28;20055;-71
2022/01/27 18:51:43;;;;;;;27.27;4.27;;;;;;;;;;5070172;28;20391;-71
2022/01/27 18:54:09;;;;;;;23.90;4.53;;;;;;;;;;5070760;28;20050;-71
2022/01/27 18:56:35;;;;;;;23.67;4.93;;;;;;;;;;5068587;28;20041;-71
2022/01/27 18:59:04;;;;;;;16.83;3.80;;;;;;;;;;5070645;28;20053;-71
2022/01/27 19:01:30;;;;;;;20.57;2.87;;;;;;;;;;5069728;28;20066;-71
2022/01/27 19:03:56;;;;;;;20.20;3.80;;;;;;;;;;5051187;28;20172;-71
2022/01/27 19:06:23;;;;;;;17.87;3.73;;;;;;;;;;5050956;28;20479;-71
2022/01/27 19:08:49;;;;;;;15.53;2.23;;;;;;;;;;5069712;28;20137;-71
2022/01/27 19:11:15;;;;;;;15.43;2.23;;;;;;;;;;5061942;28;20041;-71
2022/01/27 19:13:43;;;;;;;12.60;2.00;;;;;;;;;;5060446;28;20044;-71
2022/01/27 19:16:09;;;;;;;29.87;5.77;;;;;;;;;;5071099;28;20468;-71
2022/01/27 19:18:35;;;;;;;19.70;2.60;;;;;;;;;;5058906;28;20056;-71
2022/01/27 19:21:01;;;;;;;16.10;2.87;;;;;;;;;;5058174;28;20525;-71
2022/01/27 19:23:43;;;;;;;10.03;1.97;;;;;;;;;;5058998;28;20045;-71
2022/01/27 19:26:09;;;;;;;13.00;2.23;;;;;;;;;;5059821;28;20131;-71
2022/01/27 19:28:36;;;;;;;19.37;2.80;;;;;;;;;;5055073;28;20136;-71
2022/01/27 19:31:03;;;;;;;18.97;2.90;;;;;;;;;;5059143;28;20061;-71
2022/01/27 19:33:34;;;;;;;15.37;2.77;;;;;;;;;;5048577;28;20127;-71
2022/01/27 19:36:00;;;;;;;19.93;2.53;;;;;;;;;;5047575;28;20102;-71
2022/01/27 19:38:29;;;;;;;13.23;2.47;;;;;;;;;;5049101;28;20045;-71
2022/01/27 19:41:10;;;;;;;14.03;2.87;;;;;;;;;;5055091;28;20123;-71
2022/01/27 19:43:37;;;;;;;18.53;2.83;;;;;;;;;;5069546;28;20055;-71
2022/01/27 19:46:07;;;;;;;23.60;3.43;;;;;;;;;;5068790;28;20417;-71
2022/01/27 19:48:35;;;;;;;20.87;4.57;;;;;;;;;;5068817;28;20041;-71
2022/01/27 19:51:03;;;;;;;12.20;3.10;;;;;;;;;;5064950;28;20521;-71
2022/01/27 19:53:40;;;;;;;18.90;2.93;;;;;;;;;;5049060;28;20399;-71
2022/01/27 19:56:06;;;;;;;19.57;3.50;;;;;;;;;;5058747;28;20135;-71
2022/01/27 19:58:32;;;;;;;17.20;3.47;;;;;;;;;;5054028;28;20179;-71
2022/01/27 20:00:58;;;;;;;16.93;3.00;;;;;;;;;;5049399;28;20530;-71
2022/01/27 20:03:27;;;;;;;29.00;4.63;;;;;;;;;;5048876;28;20483;-71
2022/01/27 20:05:53;;;;;;;21.83;2.90;;;;;;;;;;5049126;28;20055;-71
2022/01/27 20:08:19;;;;;;;22.07;3.27;;;;;;;;;;5048649;28;20052;-71
2022/01/27 20:10:45;;;;;;;27.57;4.23;;;;;;;;;;5049102;28;20176;-71
2022/01/27 20:13:11;;;;;;;26.53;5.63;;;;;;;;;;5046331;28;20053;-71
2022/01/27 20:15:41;;;;;;;24.20;3.80;;;;;;;;;;5048829;28;20526;-71
2022/01/27 20:18:08;;;;;;;22.17;3.63;;;;;;;;;;5062743;28;20049;-71
2022/01/27 20:20:35;;;;;;;27.17;3.43;;;;;;;;;;5047706;28;20057;-71
2022/01/27 20:23:01;;;;;;;26.10;3.57;;;;;;;;;;5066689;28;20044;-71
2022/01/27 20:25:27;;;;;;;27.70;4.50;;;;;;;;;;5067758;28;20044;-71
2022/01/27 20:27:57;;;;;;;24.70;3.70;;;;;;;;;;5067053;28;20052;-71
2022/01/27 20:30:23;;;;;;;25.87;3.63;;;;;;;;;;5061647;28;20049;-71
2022/01/27 20:32:49;;;;;;;18.93;3.77;;;;;;;;;;5046985;28;20063;-71
2022/01/27 20:35:18;;;;;;;24.77;4.33;;;;;;;;;;5065966;28;20401;-71
2022/01/27 20:37:47;;;;;;;28.17;5.83;;;;;;;;;;5068433;28;20049;-71
2022/01/27 20:40:14;;;;;;;23.30;3.63;;;;;;;;;;5049633;28;20052;-71
2022/01/27 20:42:58;;;;;;;20.27;3.17;;;;;;;;;;5048520;28;20049;-71
2022/01/27 20:45:25;;;;;;;27.67;4.03;;;;;;;;;;5048174;28;20407;-71
2022/01/27 20:47:51;;;;;;;27.07;4.67;;;;;;;;;;5048229;28;20041;-71
2022/01/27 20:50:23;;;;;;;17.87;3.77;;;;;;;;;;5066382;28;20045;-71
2022/01/27 20:52:49;;;;;;;22.37;4.37;;;;;;;;;;5065875;28;20052;-71
2022/01/27 20:55:15;;;;;;;18.83;4.97;;;;;;;;;;5066753;28;20048;-70
2022/01/27 20:57:41;;;;;;;21.97;4.43;;;;;;;;;;5067935;28;20890;-70
2022/01/27 21:00:09;;;;;;;23.53;4.00;;;;;;;;;;5065648;28;20098;-70
2022/01/27 21:02:39;;;;;;;20.10;3.97;;;;;;;;;;5068340;28;20040;-71
2022/01/27 21:05:05;;;;;;;28.70;3.47;;;;;;;;;;5066686;28;20080;-71
2022/01/27 21:07:31;;;;;;;29.93;4.27;;;;;;;;;;5060293;28;20041;-71
2022/01/27 21:09:57;;;;;;;35.40;6.60;;;;;;;;;;5047763;28;20049;-71
2022/01/27 21:12:23;;;;;;;21.27;3.60;;;;;;;;;;5047328;28;20071;-71
2022/01/27 21:14:52;;;;;;;27.87;4.20;;;;;;;;;;5046930;28;20487;-71
2022/01/27 21:17:19;;;;;;;24.83;3.97;;;;;;;;;;5053144;28;20106;-70
2022/01/27 21:19:45;;;;;;;21.03;3.40;;;;;;;;;;5065847;28;20056;-71
2022/01/27 21:22:11;;;;;;;24.90;3.27;;;;;;;;;;5063751;28;20055;-71
2022/01/27 21:24:38;;;;;;;14.83;3.43;;;;;;;;;;5066691;28;20049;-71
2022/01/27 21:27:07;;;;;;;23.77;4.37;;;;;;;;;;5055019;28;20528;-71
2022/01/27 21:29:33;;;;;;;15.00;2.60;;;;;;;;;;5056407;28;20061;-71
2022/01/27 21:31:59;;;;;;;24.43;4.80;;;;;;;;;;5055749;28;20118;-71
2022/01/27 21:34:38;;;;;;;25.63;4.40;;;;;;;;;;5057266;28;20098;-71
2022/01/27 21:37:05;;;;;;;18.17;2.77;;;;;;;;;;5059411;28;20053;-71
2022/01/27 21:39:31;;;;;;;17.43;2.50;;;;;;;;;;5054313;28;20115;-71
2022/01/27 21:42:00;;;;;;;11.33;1.67;;;;;;;;;;5066173;28;20056;-71
2022/01/27 21:44:26;;;;;;;12.17;2.33;;;;;;;;;;5067111;28;20041;-71
2022/01/27 21:46:52;;;;;;;10.93;2.43;;;;;;;;;;5067685;28;20049;-71
2022/01/27 21:49:23;;;;;;;11.47;2.03;;;;;;;;;;5050893;28;20068;-71
2022/01/27 21:51:57;;;;;;;11.97;3.03;;;;;;;;;;5061173;28;20131;-71
2022/01/27 21:54:23;;;;;;;22.75;2.85;;;;;;;;;;5060828;28;20056;-71
2022/01/27 21:56:49;;;;;;;12.80;2.63;;;;;;;;;;5052786;28;20032;-71
2022/01/27 21:59:17;;;;;;;12.07;2.03;;;;;;;;;;5054579;28;21199;-71
2022/01/27 22:01:46;;;;;;;11.03;2.07;;;;;;;;;;5054739;28;20056;-71
2022/01/27 22:04:12;;;;;;;11.57;2.10;;;;;;;;;;5064669;28;20044;-71
2022/01/27 22:06:39;;;;;;;17.73;4.83;;;;;;;;;;5067167;28;20083;-71
2022/01/27 22:09:05;;;;;;;19.03;5.60;;;;;;;;;;5067768;28;20045;-71
2022/01/27 22:11:31;;;;;;;14.47;2.33;;;;;;;;;;5065361;28;20040;-73
2022/01/27 22:13:57;;;;;;;18.70;4.07;;;;;;;;;;5055080;28;20563;-74
2022/01/27 22:16:26;;;;;;;22.50;2.53;;;;;;;;;;5055421;28;20041;-73
2022/01/27 22:18:52;;;;;;;13.20;2.10;;;;;;;;;;5066997;28;20053;-75
2022/01/27 22:21:19;;;;;;;17.07;3.27;;;;;;;;;;5060087;28;20418;-75
2022/01/27 22:23:45;;;;;;;10.13;1.97;;;;;;;;;;5066506;28;20040;-74
2022/01/27 22:26:10;;;;;;;9.87;1.97;;;;;;;;;;5067207;28;20045;-75
2022/01/27 22:28:36;;;;;;;13.13;2.53;;;;;;;;;;5053460;28;20470;-74
2022/01/27 22:31:04;;;;;;;15.47;2.50;;;;;;;;;;5064560;28;20136;-73
2022/01/27 22:33:30;;;;;;;31.43;5.37;;;;;;;;;;5058963;28;20059;-73
2022/01/27 22:35:56;;;;;;;15.07;3.07;;;;;;;;;;5067608;28;20045;-73
2022/01/27 22:38:23;;;;;;;19.13;3.57;;;;;;;;;;5070254;28;20048;-73
2022/01/27 22:40:50;;;;;;;21.20;2.80;;;;;;;;;;5068870;28;20048;-73
2022/01/27 22:43:16;;;;;;;20.17;2.43;;;;;;;;;;5070480;28;20048;-73
2022/01/27 22:45:42;;;;;;;15.57;3.03;;;;;;;;;;5069280;28;20053;-73
2022/01/27 22:48:08;;;;;;;16.60;3.10;;;;;;;;;;5061515;28;20052;-73
2022/01/27 22:50:37;;;;;;;19.07;2.63;;;;;;;;;;5054120;28;20066;-73
2022/01/27 22:53:04;;;;;;;22.40;3.63;;;;;;;;;;5070759;28;20056;-72
2022/01/27 22:55:30;;;;;;;24.57;3.93;;;;;;;;;;5066522;28;20090;-73
2022/01/27 22:57:56;;;;;;;22.17;4.10;;;;;;;;;;5063288;28;20694;-73
2022/01/27 23:00:24;;;;;;;21.77;3.37;;;;;;;;;;5060977;28;20102;-73
2022/01/27 23:02:50;;;;;;;18.23;3.43;;;;;;;;;;5070622;28;20066;-73
2022/01/27 23:05:16;;;;;;;28.20;3.20;;;;;;;;;;5069492;28;20053;-73
2022/01/27 23:07:46;;;;;;;23.93;4.43;;;;;;;;;;5063454;28;20050;-73
2022/01/27 23:10:16;;;;;;;20.37;3.10;;;;;;;;;;5067468;28;20052;-73
2022/01/27 23:12:50;;;;;;;27.23;3.80;;;;;;;;;;5052186;28;20295;-73
2022/01/27 23:21:03;;;;;;;24.47;4.07;;;;;;;;;;5064520;28;20283;-73
2022/01/27 23:23:32;;;;;;;23.00;2.90;;;;;;;;;;5059882;28;20057;-73
2022/01/27 23:26:13;;;;;;;22.70;4.30;;;;;;;;;;5066106;28;20081;-73
2022/01/27 23:28:44;;;;;;;17.57;3.27;;;;;;;;;;5069795;28;20060;-73
2022/01/27 23:33:40;;;;;;;14.50;3.20;;;;;;;;;;5068042;28;20056;-72
2022/01/27 23:36:14;;;;;;;18.00;3.67;;;;;;;;;;5065544;28;20135;-72
2022/01/27 23:44:21;;;;;;;17.93;3.43;;;;;;;;;;5069187;28;20056;-72
2022/01/27 23:47:12;;;;;;;14.73;4.53;;;;;;;;;;5069053;28;20055;-72
2022/01/27 23:57:18;;;;;;;12.00;2.07;;;;;;;;;;5049324;28;20461;-73
